createdAt,value
2023-05-05T00:02:48.428Z,18.60
2023-05-05T00:07:51.010Z,18.57
2023-05-05T00:12:54.921Z,18.56
2023-05-05T00:17:57.577Z,18.46
2023-05-05T00:23:00.174Z,18.43
2023-05-05T00:28:04.082Z,18.42
2023-05-05T00:33:07.490Z,18.38
2023-05-05T00:38:10.178Z,18.33
2023-05-05T00:43:14.074Z,18.39
2023-05-05T00:48:18.809Z,18.32
2023-05-05T00:53:21.356Z,18.25
2023-05-05T00:58:25.514Z,18.20
2023-05-05T01:03:28.731Z,18.09
2023-05-05T01:08:45.090Z,18.02
2023-05-05T01:13:59.148Z,17.91
2023-05-05T01:19:13.431Z,17.88
2023-05-05T01:24:37.163Z,17.89
2023-05-05T01:30:01.894Z,17.68
2023-05-05T01:35:13.285Z,17.82
2023-05-05T01:40:20.764Z,17.90
2023-05-05T01:45:27.315Z,17.83
2023-05-05T01:50:32.858Z,17.78
2023-05-05T01:55:37.434Z,17.53
2023-05-05T02:00:40.760Z,17.22
2023-05-05T02:05:45.410Z,17.52
2023-05-05T02:10:49.277Z,17.43
2023-05-05T02:15:53.326Z,17.60
2023-05-05T02:20:57.295Z,17.67
2023-05-05T02:26:05.657Z,17.75
2023-05-05T02:31:10.571Z,17.83
2023-05-05T02:36:18.778Z,17.73
2023-05-05T02:41:34.621Z,17.80
2023-05-05T02:46:43.424Z,17.78
2023-05-05T02:51:47.684Z,17.66
2023-05-05T02:56:58.680Z,17.62
2023-05-05T03:02:11.757Z,17.31
2023-05-05T03:07:24.629Z,17.32
2023-05-05T03:12:31.392Z,17.14
2023-05-05T03:17:49.896Z,17.06
2023-05-05T03:22:54.748Z,17.01
2023-05-05T03:27:57.561Z,17.04
2023-05-05T03:33:00.388Z,16.97
2023-05-05T03:38:05.554Z,17.17
2023-05-05T03:43:09.003Z,17.14
2023-05-05T03:48:11.728Z,17.06
2023-05-05T03:53:17.432Z,16.85
2023-05-05T03:58:20.834Z,16.60
2023-05-05T04:03:24.480Z,16.83
2023-05-05T04:08:28.717Z,16.88
2023-05-05T04:13:31.772Z,16.83
2023-05-05T04:18:55.295Z,16.71
2023-05-05T04:24:22.934Z,16.88
2023-05-05T04:29:45.742Z,16.86
2023-05-05T04:35:09.225Z,16.89
2023-05-05T04:40:33.176Z,16.65
2023-05-05T04:45:53.544Z,16.78
2023-05-05T04:50:58.259Z,16.74
2023-05-05T04:56:02.570Z,16.74
2023-05-05T05:01:05.463Z,16.74
2023-05-05T05:06:08.122Z,16.83
2023-05-05T05:11:13.498Z,16.68
2023-05-05T05:16:17.541Z,16.90
2023-05-05T05:21:20.585Z,16.81
2023-05-05T05:26:24.538Z,16.82
2023-05-05T05:31:27.943Z,16.91
2023-05-05T05:36:31.604Z,17.06
2023-05-05T05:41:36.430Z,17.12
2023-05-05T05:46:39.346Z,16.96
2023-05-05T05:51:42.246Z,17.04
2023-05-05T05:56:46.330Z,17.17
2023-05-05T06:01:48.953Z,17.19
2023-05-05T06:06:52.115Z,17.28
2023-05-05T06:11:56.402Z,17.44
2023-05-05T06:16:58.990Z,17.44
2023-05-05T06:22:04.114Z,17.39
2023-05-05T06:27:08.000Z,17.58
2023-05-05T06:32:12.232Z,17.58
2023-05-05T06:37:14.836Z,17.69
2023-05-05T06:42:18.728Z,17.86
2023-05-05T06:47:22.048Z,17.98
2023-05-05T06:52:24.636Z,17.94
2023-05-05T06:57:28.716Z,18.04
2023-05-05T07:02:31.464Z,18.05
2023-05-05T07:07:34.033Z,17.83
2023-05-05T07:12:38.379Z,18.00
2023-05-05T07:17:41.256Z,18.05
2023-05-05T07:22:43.823Z,18.25
2023-05-05T07:27:47.755Z,18.33
2023-05-05T07:32:51.030Z,18.22
2023-05-05T07:37:53.596Z,18.53
2023-05-05T07:42:58.348Z,18.63
2023-05-05T07:48:01.223Z,18.71
2023-05-05T07:53:13.600Z,18.73
2023-05-05T07:58:19.104Z,18.75
2023-05-05T08:03:24.293Z,18.86
2023-05-05T08:08:27.478Z,18.82
2023-05-05T08:13:31.715Z,18.82
2023-05-05T08:18:37.356Z,18.79
2023-05-05T08:23:40.287Z,18.90
2023-05-05T08:28:44.158Z,19.01
2023-05-05T08:33:47.353Z,19.08
2023-05-05T08:38:49.943Z,19.29
2023-05-05T08:43:53.904Z,19.38
2023-05-05T08:48:57.210Z,19.21
2023-05-05T08:54:04.053Z,19.38
2023-05-05T08:59:09.512Z,19.27
2023-05-05T09:04:12.125Z,19.45
2023-05-05T09:09:18.175Z,19.49
2023-05-05T09:14:22.046Z,19.66
2023-05-05T09:19:24.598Z,19.44
2023-05-05T09:24:27.138Z,20.11
2023-05-05T09:29:31.086Z,20.35
2023-05-05T09:34:35.032Z,20.46
2023-05-05T09:39:37.693Z,20.82
2023-05-05T09:44:41.897Z,21.03
2023-05-05T09:49:44.509Z,21.13
2023-05-05T09:54:54.907Z,21.14
2023-05-05T10:00:01.206Z,20.87
2023-05-05T10:05:09.374Z,21.09
2023-05-05T10:10:14.332Z,21.12
2023-05-05T10:15:19.442Z,21.29
2023-05-05T10:20:23.624Z,21.49
2023-05-05T10:25:30.973Z,21.67
2023-05-05T10:30:42.859Z,21.45
2023-05-05T10:35:47.400Z,21.63
2023-05-05T10:40:51.271Z,21.57
2023-05-05T10:45:56.146Z,21.45
2023-05-05T10:51:07.740Z,21.48
2023-05-05T10:56:18.177Z,21.52
2023-05-05T11:01:33.881Z,21.71
2023-05-05T11:06:36.597Z,21.78
2023-05-05T11:12:03.394Z,21.83
2023-05-05T11:17:45.078Z,21.90
2023-05-05T11:23:22.463Z,21.83
2023-05-05T11:28:29.967Z,21.44
2023-05-05T11:33:36.980Z,21.53
2023-05-05T11:38:48.439Z,21.75
2023-05-05T11:43:51.149Z,21.61
2023-05-05T11:48:55.004Z,21.41
2023-05-05T11:53:59.059Z,21.60
2023-05-05T11:59:10.358Z,21.53
2023-05-05T12:04:15.068Z,21.35
2023-05-05T12:09:19.105Z,21.08
2023-05-05T12:14:22.414Z,21.15
2023-05-05T12:19:29.874Z,21.26
2023-05-05T12:24:32.435Z,21.32
2023-05-05T12:29:35.227Z,21.40
2023-05-05T12:34:39.172Z,21.40
2023-05-05T12:39:41.705Z,21.49
2023-05-05T12:44:44.818Z,21.49
2023-05-05T12:49:50.645Z,21.34
2023-05-05T12:54:57.505Z,21.19
2023-05-05T13:00:13.476Z,21.05
2023-05-05T13:05:29.912Z,20.87
2023-05-05T13:10:32.518Z,20.82
2023-05-05T13:15:35.145Z,20.82
2023-05-05T13:20:39.048Z,20.76
2023-05-05T13:25:41.875Z,20.74
2023-05-05T13:30:44.434Z,20.53
2023-05-05T13:35:48.373Z,20.41
2023-05-05T13:40:51.113Z,20.50
2023-05-05T13:45:55.072Z,20.58
2023-05-05T13:51:01.000Z,20.57
2023-05-05T13:56:04.051Z,20.17
2023-05-05T14:01:06.775Z,19.35
2023-05-05T14:06:10.831Z,19.10
2023-05-05T14:11:13.721Z,19.07
2023-05-05T14:16:16.488Z,19.01
2023-05-05T14:21:20.425Z,18.69
2023-05-05T14:26:22.961Z,17.98
2023-05-05T14:31:25.588Z,17.10
2023-05-05T14:36:29.553Z,16.92
2023-05-05T14:41:32.084Z,16.59
2023-05-05T14:46:34.954Z,16.67
2023-05-05T14:51:38.833Z,16.71
2023-05-05T14:56:41.825Z,16.75
2023-05-05T15:01:44.445Z,16.65
2023-05-05T15:06:48.426Z,16.63
2023-05-05T15:11:51.385Z,16.34
2023-05-05T15:16:54.044Z,16.19
2023-05-05T15:21:58.023Z,16.28
2023-05-05T15:27:01.478Z,16.39
2023-05-05T15:32:04.101Z,16.09
2023-05-05T15:37:08.291Z,15.98
2023-05-05T15:42:10.832Z,16.04
2023-05-05T15:47:13.579Z,15.90
2023-05-05T15:52:17.630Z,16.10
2023-05-05T15:57:20.322Z,16.31
2023-05-05T16:02:23.030Z,16.45
2023-05-05T16:07:26.954Z,16.69
2023-05-05T16:12:29.506Z,16.30
2023-05-05T16:17:32.289Z,16.52
2023-05-05T16:22:36.809Z,16.78
2023-05-05T16:27:39.555Z,16.86
2023-05-05T16:32:42.261Z,16.91
2023-05-05T16:37:46.258Z,16.67
2023-05-05T16:42:48.794Z,16.47
2023-05-05T16:47:51.474Z,16.50
2023-05-05T16:52:55.502Z,16.51
2023-05-05T16:57:58.124Z,16.69
2023-05-05T17:03:00.709Z,16.51
2023-05-05T17:08:04.923Z,16.45
2023-05-05T17:13:08.250Z,16.39
2023-05-05T17:18:11.113Z,16.55
2023-05-05T17:23:16.531Z,16.39
2023-05-05T17:28:19.188Z,16.20
2023-05-05T17:33:22.042Z,15.97
2023-05-05T17:38:26.040Z,15.84
2023-05-05T17:43:29.060Z,16.23
2023-05-05T17:48:31.670Z,16.25
2023-05-05T17:53:35.916Z,16.11
2023-05-05T17:58:38.504Z,16.23
2023-05-05T18:03:41.277Z,16.01
2023-05-05T18:08:45.642Z,15.96
2023-05-05T18:13:48.204Z,15.85
2023-05-05T18:18:50.778Z,15.78
2023-05-05T18:24:01.756Z,15.86
2023-05-05T18:29:10.616Z,15.87
2023-05-05T18:34:13.568Z,15.36
2023-05-05T18:39:18.333Z,15.42
2023-05-05T18:44:21.015Z,15.34
2023-05-05T18:49:24.660Z,15.41
2023-05-05T18:54:28.823Z,15.79
2023-05-05T18:59:31.566Z,15.86
2023-05-05T19:04:37.276Z,15.76
2023-05-05T19:09:41.165Z,15.62
2023-05-05T19:14:43.768Z,15.09
2023-05-05T19:19:46.324Z,14.87
2023-05-05T19:24:50.384Z,15.30
2023-05-05T19:29:53.210Z,15.32
2023-05-05T19:34:55.769Z,15.42
2023-05-05T19:39:59.645Z,15.59
2023-05-05T19:45:02.658Z,15.28
2023-05-05T19:50:05.888Z,15.33
2023-05-05T19:55:12.826Z,15.13
2023-05-05T20:00:16.141Z,15.26
2023-05-05T20:05:18.691Z,14.93
2023-05-05T20:10:22.566Z,14.71
2023-05-05T20:15:25.269Z,15.14
2023-05-05T20:20:28.126Z,15.27
2023-05-05T20:25:32.045Z,15.23
2023-05-05T20:30:35.191Z,15.22
2023-05-05T20:35:37.802Z,15.19
2023-05-05T20:40:42.062Z,14.93
2023-05-05T20:45:46.194Z,14.92
2023-05-05T20:50:48.762Z,14.99
2023-05-05T20:55:52.646Z,14.86
2023-05-05T21:00:55.218Z,14.66
2023-05-05T21:05:58.236Z,14.89
2023-05-05T21:11:02.105Z,14.75
2023-05-05T21:16:05.028Z,14.63
2023-05-05T21:21:07.669Z,14.53
2023-05-05T21:26:11.714Z,14.64
2023-05-05T21:31:21.925Z,14.46
2023-05-05T21:36:25.067Z,14.58
2023-05-05T21:41:28.995Z,14.67
2023-05-05T21:46:31.611Z,14.75
2023-05-05T21:51:34.821Z,14.59
2023-05-05T21:56:39.136Z,14.65
2023-05-05T22:01:41.692Z,14.63
2023-05-05T22:06:44.267Z,14.15
2023-05-05T22:11:48.229Z,13.67
2023-05-05T22:16:50.995Z,13.74
2023-05-05T22:21:53.517Z,14.18
2023-05-05T22:26:58.103Z,13.79
2023-05-05T22:32:00.688Z,14.19
2023-05-05T22:37:03.219Z,14.18
2023-05-05T22:42:07.133Z,14.30
2023-05-05T22:47:09.790Z,14.02
2023-05-05T22:52:12.431Z,14.26
2023-05-05T22:57:16.370Z,14.11
2023-05-05T23:02:19.036Z,14.05
2023-05-05T23:07:21.838Z,13.83
2023-05-05T23:12:25.793Z,13.63
2023-05-05T23:17:28.372Z,13.88
2023-05-05T23:22:30.979Z,13.79
2023-05-05T23:27:34.974Z,13.57
2023-05-05T23:32:37.801Z,13.87
2023-05-05T23:37:40.404Z,13.34
2023-05-05T23:42:44.368Z,13.22
2023-05-05T23:47:46.985Z,13.50
2023-05-05T23:52:49.524Z,13.80
2023-05-05T23:57:53.787Z,13.57
